Terminal Aerodrome Forecast
Issued by NWS Corpus Christi, TX

Home | Current Version | Previous Version | Text Only | Print | Product List | Glossary On
Versions: 1 2 3 4 5 6 7 8 9 10 11 12 13 14 15 16 17 18 19 20 21
000
FTUS44 KCRP 292300
TAFCRP
TAF
KCRP 292328Z 3000/3024 11012KT P6SM FEW025 SCT250
     FM300300 09006KT P6SM FEW012 SCT250
     FM300600 06004KT 4SM BR SCT010 BKN250
      TEMPO 3006/3010 2SM BR BKN010
     FM301100 03014G20KT P6SM BKN018 OVC028
     FM301600 05015G21KT P6SM SCT020 BKN030
     FM302000 07017G24KT P6SM BKN018 OVC025=

USA.gov is the U.S. government's official web portal to all federal, state and local government web resources and services.